Time;durP1;ratioP1;P1;durP2;ratioP2;P2;SDS_P1;SDS_P2;PMS_P1;PMS_P2;Temp;Humidity;BMP_temperature;BMP_pressure;BME280_temperature;BME280_humidity;BME280_pressure;Samples;Min_cycle;Max_cycle;Signal;HPM_P1;HPM_P2
2022/06/13 00:00:08;;;;;;;4.23;2.90;;;22.70;99.90;;;;;;5030171;28;20427;-68
2022/06/13 00:02:35;;;;;;;3.77;3.00;;;22.60;99.90;;;;;;5032849;28;20227;-69
2022/06/13 00:05:02;;;;;;;4.40;3.00;;;22.60;99.90;;;;;;5030163;28;20894;-69
2022/06/13 00:07:27;;;;;;;3.33;2.87;;;22.60;99.90;;;;;;5035847;28;20523;-68
2022/06/13 00:09:53;;;;;;;5.87;3.27;;;22.70;99.90;;;;;;5031618;28;20542;-68
2022/06/13 00:12:20;;;;;;;5.83;2.73;;;22.70;99.90;;;;;;5037229;28;20222;-67
2022/06/13 00:14:45;;;;;;;3.33;2.80;;;22.60;99.90;;;;;;5032689;28;20438;-68
2022/06/13 00:17:11;;;;;;;3.47;3.13;;;22.50;99.90;;;;;;5034371;28;20183;-67
2022/06/13 00:19:37;;;;;;;4.13;2.83;;;22.40;99.90;;;;;;5044640;28;20232;-68
2022/06/13 00:22:03;;;;;;;5.67;3.37;;;22.50;99.90;;;;;;5014823;28;20208;-69
2022/06/13 00:24:29;;;;;;;4.30;3.20;;;22.40;99.90;;;;;;5034910;28;20187;-68
2022/06/13 00:26:55;;;;;;;4.57;3.20;;;22.30;99.90;;;;;;5047361;28;20439;-67
2022/06/13 00:29:20;;;;;;;5.97;2.67;;;22.40;99.90;;;;;;5032535;28;20188;-70
2022/06/13 00:31:46;;;;;;;5.33;3.00;;;22.50;99.90;;;;;;5019113;28;20274;-69
2022/06/13 00:34:11;;;;;;;3.00;2.70;;;22.60;99.90;;;;;;5037594;28;20176;-68
2022/06/13 00:36:37;;;;;;;4.80;2.83;;;22.70;99.90;;;;;;5036027;28;20190;-69
2022/06/13 00:39:03;;;;;;;5.50;2.83;;;22.60;99.90;;;;;;5031978;28;20212;-68
2022/06/13 00:41:34;;;;;;;3.40;3.07;;;22.60;99.90;;;;;;5017404;28;20189;-68
2022/06/13 00:44:00;;;;;;;4.03;3.33;;;22.70;99.90;;;;;;5033264;28;20431;-68
2022/06/13 00:46:32;;;;;;;6.10;2.83;;;22.60;99.90;;;;;;5035742;28;20912;-67
2022/06/13 00:49:09;;;;;;;6.37;3.13;;;22.50;99.90;;;;;;5039053;28;20438;-69
2022/06/13 00:51:39;;;;;;;4.00;3.27;;;22.60;99.90;;;;;;5032121;28;20462;-67
2022/06/13 00:54:06;;;;;;;4.03;3.00;;;22.60;99.90;;;;;;5032528;28;20505;-68
2022/06/13 00:56:35;;;;;;;4.47;2.60;;;22.50;99.90;;;;;;5032689;28;20473;-66
2022/06/13 00:59:05;;;;;;;4.20;3.03;;;22.60;99.90;;;;;;5033025;28;20515;-68
2022/06/13 01:01:32;;;;;;;3.53;2.80;;;22.70;99.90;;;;;;5015258;28;20941;-68
2022/06/13 01:04:01;;;;;;;5.13;3.47;;;22.70;99.90;;;;;;5021246;28;20835;-68
2022/06/13 01:06:29;;;;;;;3.93;2.90;;;22.70;99.90;;;;;;5034197;28;20947;-68
2022/06/13 01:08:55;;;;;;;4.27;3.20;;;22.60;99.90;;;;;;5039911;28;20910;-68
2022/06/13 01:11:25;;;;;;;3.63;3.03;;;22.60;99.90;;;;;;5035430;28;20467;-68
2022/06/13 01:14:19;;;;;;;2.90;2.60;;;22.30;99.90;;;;;;5035352;28;20429;-68
2022/06/13 01:17:00;;;;;;;6.60;3.37;;;22.40;99.90;;;;;;5035841;28;20430;-68
2022/06/13 01:19:47;;;;;;;4.93;3.60;;;22.30;99.90;;;;;;5041976;28;20890;-68
2022/06/13 01:22:21;;;;;;;7.40;2.93;;;22.10;99.90;;;;;;5035450;28;21061;-67
2022/06/13 01:25:08;;;;;;;6.50;4.13;;;22.30;99.90;;;;;;5038730;28;20442;-67
2022/06/13 01:28:09;;;;;;;6.27;2.83;;;22.40;99.90;;;;;;5038155;28;20443;-67
2022/06/13 01:31:05;;;;;;;5.03;3.43;;;22.40;99.90;;;;;;5033354;28;20796;-69
2022/06/13 01:33:46;;;;;;;4.37;3.97;;;22.40;99.90;;;;;;5026088;28;20556;-67
2022/06/13 01:36:12;;;;;;;5.00;3.23;;;22.30;99.90;;;;;;5036604;28;20933;-68
2022/06/13 01:38:59;;;;;;;3.10;2.80;;;22.20;99.90;;;;;;5036070;28;20520;-67
2022/06/13 01:41:30;;;;;;;3.30;3.00;;;22.10;99.90;;;;;;5022984;28;20680;-67
2022/06/13 01:44:07;;;;;;;4.27;3.23;;;22.20;99.90;;;;;;5034427;28;21007;-68
2022/06/13 01:46:37;;;;;;;4.93;3.20;;;22.50;99.90;;;;;;5036331;28;20439;-67
2022/06/13 01:49:20;;;;;;;3.37;2.53;;;22.50;99.90;;;;;;5038644;28;20469;-68
2022/06/13 01:51:59;;;;;;;5.00;3.20;;;22.50;99.90;;;;;;5035817;28;20571;-68
2022/06/13 01:54:43;;;;;;;4.10;2.97;;;22.50;99.90;;;;;;5033845;28;20442;-68
2022/06/13 01:57:27;;;;;;;6.17;3.60;;;22.60;99.90;;;;;;5036421;28;20438;-68
2022/06/13 01:59:55;;;;;;;3.67;3.10;;;22.60;99.90;;;;;;5039926;28;20443;-68
2022/06/13 02:02:48;;;;;;;7.17;3.90;;;22.60;99.90;;;;;;5035284;28;20526;-68
2022/06/13 02:05:19;;;;;;;3.10;2.80;;;22.50;99.90;;;;;;5036962;28;20446;-68
2022/06/13 02:07:48;;;;;;;4.00;3.07;;;22.40;99.90;;;;;;5035089;28;20442;-69
2022/06/13 02:10:25;;;;;;;3.87;2.97;;;22.20;99.90;;;;;;5035536;28;20574;-68
2022/06/13 02:13:00;;;;;;;4.63;3.33;;;22.30;99.90;;;;;;5034167;28;20458;-70
2022/06/13 02:15:33;;;;;;;3.07;2.77;;;22.40;99.90;;;;;;5035420;28;20542;-69
2022/06/13 02:18:03;;;;;;;5.23;3.67;;;22.40;99.90;;;;;;5034484;28;20502;-69
2022/06/13 02:20:35;;;;;;;5.97;3.30;;;22.30;99.90;;;;;;5037264;28;20431;-69
2022/06/13 02:23:08;;;;;;;5.00;3.07;;;22.40;99.90;;;;;;5031823;28;20597;-68
2022/06/13 02:25:52;;;;;;;3.20;2.73;;;22.30;99.90;;;;;;5038011;28;20434;-68
2022/06/13 02:28:47;;;;;;;5.00;3.17;;;22.40;99.90;;;;;;5034560;28;20415;-68
2022/06/13 02:31:19;;;;;;;6.47;2.77;;;22.40;99.90;;;;;;5035193;28;20556;-67
2022/06/13 02:34:11;;;;;;;5.17;2.93;;;22.50;99.90;;;;;;5020507;28;20450;-67
2022/06/13 02:36:43;;;;;;;6.33;3.43;;;22.40;98.20;;;;;;5032960;28;20439;-67
2022/06/13 02:39:20;;;;;;;5.43;3.20;;;22.30;96.90;;;;;;5035619;28;20426;-67
2022/06/13 02:41:53;;;;;;;5.17;3.10;;;22.30;96.70;;;;;;5037975;28;20481;-68
2022/06/13 02:44:52;;;;;;;6.00;3.40;;;22.30;95.70;;;;;;5034931;28;21123;-69
2022/06/13 02:47:33;;;;;;;6.23;3.60;;;22.30;94.70;;;;;;5036879;28;20434;-67
2022/06/13 02:50:14;;;;;;;6.70;3.37;;;22.30;94.70;;;;;;5030938;28;20443;-69
2022/06/13 02:52:47;;;;;;;5.40;2.60;;;22.30;94.10;;;;;;5036080;28;20478;-67
2022/06/13 02:55:15;;;;;;;6.03;3.30;;;22.40;93.80;;;;;;5034932;28;20518;-69
2022/06/13 02:58:08;;;;;;;5.10;3.17;;;22.40;93.10;;;;;;5034994;28;20466;-68
2022/06/13 03:00:56;;;;;;;7.27;3.30;;;22.40;93.30;;;;;;5035167;28;20438;-67
2022/06/13 03:03:34;;;;;;;7.70;3.00;;;22.40;93.60;;;;;;5033636;28;20448;-66
2022/06/13 03:06:17;;;;;;;4.47;2.90;;;22.30;93.80;;;;;;5033633;28;20429;-68
2022/06/13 03:08:58;;;;;;;5.53;3.13;;;22.20;94.30;;;;;;5033554;28;20475;-68
2022/06/13 03:11:39;;;;;;;6.10;3.77;;;22.00;99.60;;;;;;5032090;28;20828;-67
2022/06/13 03:14:52;;;;;;;6.00;3.20;;;21.90;99.90;;;;;;5034843;28;20489;-68
2022/06/13 03:17:44;;;;;;;4.33;3.30;;;21.90;99.90;;;;;;5036101;28;20488;-68
2022/06/13 03:20:14;;;;;;;5.40;3.97;;;21.90;99.90;;;;;;5034672;28;20466;-68
2022/06/13 03:22:48;;;;;;;6.63;3.27;;;21.90;99.90;;;;;;5030192;28;20474;-68
2022/06/13 03:25:48;;;;;;;4.83;3.60;;;21.80;99.90;;;;;;5032081;28;20434;-69
2022/06/13 03:28:21;;;;;;;4.90;3.03;;;21.90;99.90;;;;;;5017882;28;20519;-68
2022/06/13 03:30:52;;;;;;;5.13;3.40;;;21.90;99.90;;;;;;5032294;28;20960;-69
2022/06/13 03:33:40;;;;;;;4.53;3.17;;;21.90;99.90;;;;;;5031592;28;20438;-68
2022/06/13 03:36:29;;;;;;;6.67;2.97;;;21.90;99.90;;;;;;5019128;28;20804;-67
2022/06/13 03:39:21;;;;;;;4.43;3.37;;;21.80;99.90;;;;;;5032947;28;20430;-68
2022/06/13 03:41:52;;;;;;;3.50;3.10;;;21.80;99.90;;;;;;5034658;28;20505;-68
2022/06/13 03:44:25;;;;;;;3.83;3.00;;;21.70;99.90;;;;;;5033584;28;20533;-68
2022/06/13 03:46:56;;;;;;;5.33;3.03;;;21.70;99.90;;;;;;5048900;28;20854;-68
2022/06/13 03:49:36;;;;;;;6.70;3.70;;;21.70;99.70;;;;;;5033574;28;20492;-68
2022/06/13 03:52:05;;;;;;;5.80;3.13;;;21.80;98.60;;;;;;5033124;28;20470;-67
2022/06/13 03:55:12;;;;;;;4.83;2.97;;;21.80;98.30;;;;;;5033073;28;20435;-68
2022/06/13 03:57:50;;;;;;;6.50;3.50;;;21.80;98.00;;;;;;5020948;28;20803;-68
2022/06/13 04:00:31;;;;;;;8.63;3.60;;;21.80;97.10;;;;;;5030945;28;20434;-67
2022/06/13 04:02:59;;;;;;;6.93;2.83;;;21.70;96.90;;;;;;5033890;28;20453;-67
2022/06/13 04:05:39;;;;;;;6.03;2.87;;;21.70;96.50;;;;;;5031577;28;20647;-68
2022/06/13 04:08:08;;;;;;;8.80;3.97;;;21.80;96.30;;;;;;5034216;28;20434;-67
2022/06/13 04:11:00;;;;;;;6.70;3.00;;;21.80;96.10;;;;;;5032309;28;20533;-67
2022/06/13 04:13:58;;;;;;;5.37;3.37;;;21.70;96.10;;;;;;4971601;28;20465;-68
2022/06/13 04:16:24;;;;;;;4.83;2.83;;;21.70;96.10;;;;;;5033007;28;20526;-68
2022/06/13 04:19:03;;;;;;;6.10;3.10;;;21.60;96.50;;;;;;5035386;28;20522;-67
2022/06/13 04:22:05;;;;;;;4.80;3.40;;;21.60;96.20;;;;;;5030952;28;20229;-69
2022/06/13 04:24:50;;;;;;;5.67;3.93;;;21.50;96.10;;;;;;5031040;28;20449;-68
2022/06/13 04:27:43;;;;;;;9.13;3.07;;;21.40;96.20;;;;;;5033187;28;20439;-68
2022/06/13 04:30:21;;;;;;;7.60;3.17;;;21.30;96.20;;;;;;5032342;28;20494;-68
2022/06/13 04:33:45;;;;;;;7.40;3.33;;;21.30;96.20;;;;;;5035764;28;20923;-68
2022/06/13 04:36:13;;;;;;;4.43;3.00;;;21.20;95.90;;;;;;4911604;29;21061;-68
2022/06/13 04:38:47;;;;;;;6.80;3.30;;;21.20;96.00;;;;;;5011624;28;20999;-69
2022/06/13 04:41:14;;;;;;;8.30;3.20;;;21.20;95.90;;;;;;5036735;28;20441;-68
2022/06/13 04:43:47;;;;;;;4.87;3.30;;;21.20;95.70;;;;;;5037023;28;20521;-68
2022/06/13 04:46:17;;;;;;;9.53;3.50;;;21.20;95.50;;;;;;5036546;28;20916;-66
2022/06/13 04:48:46;;;;;;;5.50;3.60;;;21.20;95.50;;;;;;5035939;28;20447;-68
2022/06/13 04:51:18;;;;;;;8.07;3.63;;;21.20;95.60;;;;;;5034405;28;20477;-68
2022/06/13 04:54:00;;;;;;;5.20;3.20;;;21.20;95.50;;;;;;5036515;28;20431;-68
2022/06/13 04:56:27;;;;;;;13.30;5.50;;;21.10;96.00;;;;;;5035767;28;20961;-68
2022/06/13 04:59:18;;;;;;;7.10;3.10;;;21.20;95.60;;;;;;5035576;28;20443;-68
2022/06/13 05:01:47;;;;;;;10.13;4.40;;;21.20;95.60;;;;;;4924499;29;20529;-67
2022/06/13 05:04:16;;;;;;;8.97;3.60;;;21.20;95.50;;;;;;5005400;28;20519;-68
2022/06/13 05:06:50;;;;;;;6.53;3.63;;;21.30;95.20;;;;;;5033517;28;20441;-69
2022/06/13 05:09:31;;;;;;;8.73;3.17;;;21.30;94.70;;;;;;5036274;28;20445;-69
2022/06/13 05:12:21;;;;;;;8.13;3.67;;;21.20;94.80;;;;;;5034689;28;20531;-68
2022/06/13 05:14:50;;;;;;;5.13;2.83;;;21.20;94.60;;;;;;5036960;28;20438;-68
2022/06/13 05:17:34;;;;;;;8.20;3.10;;;21.30;95.10;;;;;;5035191;28;20434;-68
2022/06/13 05:20:12;;;;;;;8.33;3.67;;;21.30;95.00;;;;;;5036337;28;20433;-68
2022/06/13 05:22:40;;;;;;;5.60;4.10;;;21.30;94.90;;;;;;5036875;28;21052;-68
2022/06/13 05:25:41;;;;;;;7.30;3.60;;;21.40;94.20;;;;;;5036176;28;21028;-68
2022/06/13 05:28:08;;;;;;;6.87;3.10;;;21.40;94.40;;;;;;5039377;28;20473;-68
2022/06/13 05:30:34;;;;;;;8.97;3.10;;;21.60;93.90;;;;;;5019376;28;20454;-68
2022/06/13 05:33:00;;;;;;;5.40;3.20;;;21.60;93.70;;;;;;5037918;28;20457;-67
2022/06/13 05:35:31;;;;;;;6.97;3.20;;;21.60;93.50;;;;;;5038196;28;20176;-69
2022/06/13 05:38:00;;;;;;;9.93;3.53;;;21.70;93.50;;;;;;5035874;28;20181;-67
2022/06/13 05:40:25;;;;;;;6.80;3.23;;;21.70;93.20;;;;;;5048685;28;20427;-67
2022/06/13 05:42:51;;;;;;;7.60;3.40;;;21.70;93.40;;;;;;5023569;28;20472;-68
2022/06/13 05:45:22;;;;;;;6.63;3.57;;;21.60;93.60;;;;;;5038528;28;20196;-69
2022/06/13 05:47:49;;;;;;;4.33;3.40;;;21.60;93.20;;;;;;5036788;28;21117;-68
2022/06/13 05:50:22;;;;;;;6.57;3.70;;;21.60;93.30;;;;;;5033137;28;20458;-68
2022/06/13 05:52:48;;;;;;;7.50;5.47;;;21.60;93.30;;;;;;5032884;28;20485;-67
2022/06/13 05:55:13;;;;;;;9.43;4.60;;;21.50;93.20;;;;;;5037407;28;20434;-67
2022/06/13 05:57:39;;;;;;;3.63;3.33;;;21.50;93.20;;;;;;5033546;28;20247;-68
2022/06/13 06:00:13;;;;;;;7.33;3.60;;;21.50;93.10;;;;;;5034408;28;20192;-69
2022/06/13 06:02:40;;;;;;;12.83;3.87;;;21.50;93.40;;;;;;5040780;28;20450;-68
2022/06/13 06:05:06;;;;;;;5.90;3.90;;;21.60;93.50;;;;;;5030566;28;20489;-68
2022/06/13 06:07:32;;;;;;;4.03;2.87;;;21.70;93.40;;;;;;5036404;28;20965;-68
2022/06/13 06:09:58;;;;;;;6.17;3.70;;;21.60;92.50;;;;;;5035881;28;20338;-68
2022/06/13 06:12:24;;;;;;;6.80;4.80;;;21.50;92.70;;;;;;5035228;28;20484;-69
2022/06/13 06:14:50;;;;;;;7.00;4.43;;;21.60;93.00;;;;;;5031519;28;20431;-68
2022/06/13 06:17:15;;;;;;;9.70;3.40;;;21.60;92.80;;;;;;5031077;28;22094;-68
2022/06/13 06:19:41;;;;;;;5.40;3.30;;;21.60;92.70;;;;;;5013420;28;20553;-67
2022/06/13 06:22:06;;;;;;;12.10;7.53;;;21.60;92.70;;;;;;5029972;28;20439;-68
2022/06/13 06:24:32;;;;;;;10.10;5.77;;;21.60;92.90;;;;;;5034748;28;20188;-68
2022/06/13 06:26:58;;;;;;;8.10;6.03;;;21.60;92.80;;;;;;5034736;28;20203;-69
2022/06/13 06:29:24;;;;;;;8.80;5.80;;;21.70;92.80;;;;;;5036717;28;20187;-68
2022/06/13 06:31:50;;;;;;;9.33;4.47;;;21.70;92.30;;;;;;5038062;28;20223;-68
2022/06/13 06:34:16;;;;;;;4.10;3.30;;;21.80;92.30;;;;;;5035175;28;20442;-68
2022/06/13 06:36:41;;;;;;;7.00;3.87;;;21.70;92.70;;;;;;5036216;28;20184;-68
2022/06/13 06:39:07;;;;;;;7.83;3.30;;;21.50;92.50;;;;;;5017002;28;20638;-68
2022/06/13 06:41:33;;;;;;;4.57;3.10;;;21.50;92.90;;;;;;5017078;28;20195;-68
2022/06/13 06:43:58;;;;;;;8.90;3.20;;;21.60;92.80;;;;;;5041245;28;20216;-68
2022/06/13 06:46:24;;;;;;;10.00;3.60;;;21.60;92.40;;;;;;5036933;28;20431;-68
2022/06/13 06:48:51;;;;;;;7.00;3.60;;;21.50;92.50;;;;;;5033479;28;20183;-68
2022/06/13 06:51:17;;;;;;;4.83;3.80;;;21.40;92.70;;;;;;5036859;28;20222;-67
2022/06/13 07:01:57;;;;;;;7.83;3.47;;;21.40;92.70;;;;;;5037127;28;20824;-69
2022/06/13 07:04:23;;;;;;;4.63;3.97;;;21.40;92.10;;;;;;5035673;28;20442;-68
2022/06/13 07:06:48;;;;;;;6.70;3.50;;;21.50;91.60;;;;;;5035840;28;22209;-68
2022/06/13 07:09:14;;;;;;;7.07;3.27;;;21.50;91.20;;;;;;5034783;28;20207;-68
2022/06/13 07:11:55;;;;;;;4.77;2.90;;;21.50;90.00;;;;;;5033379;28;20869;-68
2022/06/13 07:14:26;;;;;;;5.67;3.80;;;21.40;90.20;;;;;;5032943;28;20203;-68
2022/06/13 07:16:52;;;;;;;8.07;3.93;;;21.50;90.30;;;;;;5032403;28;20442;-68
2022/06/13 07:19:19;;;;;;;8.93;3.93;;;21.60;90.20;;;;;;5032600;28;20465;-68
2022/06/13 07:21:45;;;;;;;15.20;5.30;;;21.60;90.40;;;;;;5032307;28;20498;-67
2022/06/13 07:24:10;;;;;;;7.10;3.90;;;21.60;90.00;;;;;;5018606;28;20458;-67
2022/06/13 07:26:37;;;;;;;9.77;3.90;;;21.60;90.00;;;;;;5019399;28;20807;-68
2022/06/13 07:29:03;;;;;;;10.33;3.87;;;21.70;89.30;;;;;;5033302;28;20653;-68
2022/06/13 07:31:52;;;;;;;9.17;4.13;;;21.70;89.50;;;;;;5030534;28;20467;-68
2022/06/13 07:34:20;;;;;;;9.47;3.40;;;21.50;89.90;;;;;;5035324;28;20426;-68
2022/06/13 07:36:48;;;;;;;11.60;4.10;;;21.50;90.20;;;;;;5033170;28;20429;-67
2022/06/13 07:39:14;;;;;;;11.77;4.57;;;21.50;90.40;;;;;;5031555;28;20446;-67
2022/06/13 07:41:40;;;;;;;6.70;4.67;;;21.70;90.10;;;;;;5032428;28;20521;-68
2022/06/13 07:44:07;;;;;;;5.47;3.90;;;21.70;90.20;;;;;;5033723;28;20180;-68
2022/06/13 07:46:34;;;;;;;10.53;3.50;;;21.80;90.50;;;;;;5033336;28;20872;-68
2022/06/13 07:49:00;;;;;;;11.73;3.70;;;21.90;90.10;;;;;;5034392;28;20435;-67
2022/06/13 07:51:27;;;;;;;9.33;3.20;;;21.90;90.10;;;;;;5032655;28;20459;-68
2022/06/13 07:53:53;;;;;;;5.87;3.90;;;21.90;90.10;;;;;;5035402;28;20993;-68
2022/06/13 07:56:22;;;;;;;10.93;4.20;;;21.90;90.00;;;;;;5036890;28;20919;-68
2022/06/13 07:58:50;;;;;;;5.03;3.47;;;21.90;90.00;;;;;;5031813;28;20455;-67
2022/06/13 08:01:16;;;;;;;8.73;4.07;;;21.90;90.10;;;;;;5033621;28;20439;-67
2022/06/13 08:03:43;;;;;;;6.37;3.47;;;22.00;90.20;;;;;;5032614;28;20474;-68
2022/06/13 08:06:10;;;;;;;8.87;3.40;;;22.00;89.80;;;;;;5031666;28;20441;-67
2022/06/13 08:08:36;;;;;;;10.03;4.03;;;22.00;89.80;;;;;;5034640;28;20917;-68
2022/06/13 08:11:04;;;;;;;5.50;3.37;;;21.90;90.10;;;;;;5048179;28;20890;-67
2022/06/13 08:13:33;;;;;;;6.57;3.40;;;22.00;90.30;;;;;;5033392;28;20962;-67
2022/06/13 08:15:59;;;;;;;6.23;3.40;;;22.00;90.40;;;;;;5036451;28;20449;-67
2022/06/13 08:18:25;;;;;;;7.07;3.43;;;22.10;90.40;;;;;;5037080;28;20488;-68
2022/06/13 08:20:51;;;;;;;4.40;3.60;;;22.10;90.30;;;;;;5035901;28;20590;-68
2022/06/13 08:23:19;;;;;;;4.57;3.43;;;22.00;89.70;;;;;;5034947;28;20481;-67
2022/06/13 08:25:47;;;;;;;8.30;3.43;;;22.10;88.60;;;;;;5030196;28;20544;-68
2022/06/13 08:28:14;;;;;;;5.97;3.73;;;22.00;89.10;;;;;;5034708;28;20418;-68
2022/06/13 08:30:41;;;;;;;7.20;3.47;;;22.00;88.20;;;;;;5037775;28;20798;-68
2022/06/13 08:33:07;;;;;;;9.50;4.20;;;22.20;88.70;;;;;;5032952;28;20516;-67
2022/06/13 08:35:34;;;;;;;6.97;3.70;;;22.40;88.20;;;;;;5036618;28;20835;-69
2022/06/13 08:37:59;;;;;;;6.10;3.33;;;22.50;87.90;;;;;;5038134;28;20216;-68
2022/06/13 08:40:37;;;;;;;7.33;3.80;;;22.40;87.10;;;;;;5035157;28;20847;-68
2022/06/13 08:43:40;;;;;;;5.87;3.63;;;22.30;89.20;;;;;;5036788;28;20200;-69
2022/06/13 08:46:23;;;;;;;10.33;4.07;;;22.50;87.70;;;;;;5035748;28;20435;-68
2022/06/13 08:48:53;;;;;;;6.80;3.90;;;22.50;86.50;;;;;;5032506;28;20470;-67
2022/06/13 08:51:34;;;;;;;6.83;4.03;;;22.50;88.50;;;;;;5036051;28;20458;-68
2022/06/13 08:54:00;;;;;;;6.67;4.00;;;22.70;88.40;;;;;;5036205;28;20537;-68
2022/06/13 08:56:31;;;;;;;9.07;4.40;;;22.70;88.10;;;;;;5032726;28;20439;-67
2022/06/13 08:59:22;;;;;;;6.13;3.90;;;22.70;88.60;;;;;;5033193;28;20485;-68
2022/06/13 09:02:09;;;;;;;7.00;4.33;;;22.60;88.70;;;;;;5031679;28;20509;-67
2022/06/13 09:04:46;;;;;;;6.90;3.97;;;22.70;87.90;;;;;;4993939;28;21018;-68
2022/06/13 09:07:24;;;;;;;4.83;4.03;;;22.90;87.70;;;;;;5033630;28;21060;-67
2022/06/13 09:10:11;;;;;;;7.00;4.53;;;22.80;88.00;;;;;;5033223;28;20438;-67
2022/06/13 09:12:56;;;;;;;7.00;3.10;;;22.80;84.60;;;;;;5031069;28;20482;-68
2022/06/13 09:15:44;;;;;;;8.70;3.70;;;22.90;82.80;;;;;;5031166;28;20427;-67
2022/06/13 09:18:23;;;;;;;7.20;3.67;;;22.80;87.30;;;;;;5024150;28;20923;-67
2022/06/13 09:20:53;;;;;;;8.40;3.87;;;22.60;88.10;;;;;;5033990;28;20442;-67
2022/06/13 09:23:43;;;;;;;5.60;3.80;;;22.60;87.00;;;;;;5033825;28;21693;-67
2022/06/13 09:26:21;;;;;;;4.50;3.30;;;22.60;84.60;;;;;;5038979;28;20521;-68
2022/06/13 09:29:15;;;;;;;6.77;3.30;;;22.60;85.20;;;;;;5037903;28;20437;-68
2022/06/13 09:31:43;;;;;;;7.20;3.87;;;22.60;84.20;;;;;;5036990;28;20888;-67
2022/06/13 09:34:18;;;;;;;5.30;3.30;;;22.40;82.00;;;;;;5036296;28;20440;-67
2022/06/13 09:36:52;;;;;;;6.97;3.23;;;22.50;80.00;;;;;;5035452;28;20522;-68
2022/06/13 09:39:18;;;;;;;4.40;2.93;;;22.60;82.80;;;;;;5038238;28;20437;-67
2022/06/13 09:41:53;;;;;;;6.50;3.60;;;22.60;83.40;;;;;;5035517;28;20453;-66
2022/06/13 09:44:28;;;;;;;6.70;3.50;;;22.60;85.30;;;;;;5037751;28;20516;-66
2022/06/13 09:47:32;;;;;;;5.27;3.50;;;22.90;84.90;;;;;;5037828;28;20438;-68
2022/06/13 09:50:14;;;;;;;5.27;3.20;;;22.80;83.40;;;;;;5038841;28;20427;-67
2022/06/13 09:52:52;;;;;;;6.00;3.67;;;22.90;80.80;;;;;;5036539;28;20474;-68
2022/06/13 09:55:41;;;;;;;4.77;3.00;;;22.80;81.80;;;;;;5041241;28;20441;-68
2022/06/13 09:58:07;;;;;;;5.07;3.37;;;22.80;79.10;;;;;;5040374;28;20431;-67
2022/06/13 10:00:56;;;;;;;5.93;3.03;;;22.90;75.20;;;;;;5039917;28;20704;-68
2022/06/13 10:03:30;;;;;;;3.77;2.90;;;23.10;70.60;;;;;;5038695;28;20209;-68
2022/06/13 10:06:21;;;;;;;3.30;3.00;;;23.10;68.90;;;;;;5036143;28;20426;-67
2022/06/13 10:09:14;;;;;;;3.67;2.70;;;23.10;68.60;;;;;;5038595;28;20552;-67
2022/06/13 10:11:58;;;;;;;5.30;2.70;;;23.20;66.90;;;;;;5036155;28;20474;-67
2022/06/13 10:14:32;;;;;;;4.37;3.07;;;23.10;67.50;;;;;;5034559;28;20423;-67
2022/06/13 10:17:09;;;;;;;6.73;3.00;;;23.40;66.90;;;;;;5037024;28;20939;-67
2022/06/13 10:20:13;;;;;;;3.60;2.70;;;23.50;66.00;;;;;;5032194;28;20835;-67
2022/06/13 10:22:51;;;;;;;5.47;3.40;;;23.60;70.40;;;;;;4994195;28;20470;-66
2022/06/13 10:25:34;;;;;;;4.63;2.87;;;23.70;72.10;;;;;;5040093;28;20430;-68
2022/06/13 10:28:18;;;;;;;6.60;3.67;;;23.90;72.10;;;;;;5035794;28;20422;-68
2022/06/13 10:31:05;;;;;;;4.63;2.60;;;23.80;69.40;;;;;;5034197;28;20971;-68
2022/06/13 10:34:03;;;;;;;5.53;3.20;;;24.10;68.80;;;;;;5033897;28;20451;-68
2022/06/13 10:36:49;;;;;;;5.23;2.63;;;23.90;68.70;;;;;;4963845;28;20455;-68
2022/06/13 10:39:19;;;;;;;3.40;3.00;;;23.80;66.00;;;;;;5034478;28;20525;-68
2022/06/13 10:41:51;;;;;;;3.13;2.40;;;23.90;66.90;;;;;;5034171;28;20538;-67
2022/06/13 10:44:18;;;;;;;5.73;2.70;;;23.70;66.70;;;;;;5033152;28;20431;-67
2022/06/13 10:46:49;;;;;;;4.10;3.13;;;23.70;64.20;;;;;;5033542;28;20517;-68
2022/06/13 10:49:48;;;;;;;4.77;2.50;;;23.80;64.10;;;;;;5032988;28;20549;-68
2022/06/13 10:52:17;;;;;;;4.40;2.70;;;23.80;63.10;;;;;;5034462;28;20471;-67
2022/06/13 10:54:48;;;;;;;2.87;2.40;;;24.10;64.60;;;;;;5018991;28;20439;-67
2022/06/13 10:57:21;;;;;;;2.77;2.30;;;24.50;63.50;;;;;;5034941;28;20429;-67
2022/06/13 11:00:09;;;;;;;4.70;2.70;;;24.70;60.80;;;;;;5035003;28;20432;-67
2022/06/13 11:02:35;;;;;;;4.33;2.87;;;24.80;60.00;;;;;;5032721;28;20502;-67
2022/06/13 11:05:10;;;;;;;4.67;2.60;;;24.70;59.40;;;;;;5036176;28;20470;-67
2022/06/13 11:07:48;;;;;;;3.47;2.77;;;24.60;58.80;;;;;;5036203;28;20190;-68
2022/06/13 11:10:28;;;;;;;5.00;2.90;;;24.40;59.30;;;;;;5036881;28;20434;-68
2022/06/13 11:12:55;;;;;;;4.07;2.80;;;24.60;59.80;;;;;;5033207;28;20579;-68
2022/06/13 11:25:00;;;;;;;4.93;2.60;;;25.00;56.40;;;;;;5032627;28;20497;-68
2022/06/13 11:27:40;;;;;;;4.50;2.60;;;24.80;56.00;;;;;;5036593;28;20435;-67
2022/06/13 11:30:28;;;;;;;7.47;2.70;;;24.90;56.20;;;;;;5033690;28;20442;-67
2022/06/13 11:33:40;;;;;;;5.20;3.70;;;25.00;57.70;;;;;;5034179;28;20470;-66
2022/06/13 11:36:14;;;;;;;3.47;2.20;;;25.00;56.40;;;;;;5031047;28;20443;-68
2022/06/13 11:38:52;;;;;;;2.80;2.50;;;25.10;55.90;;;;;;5034580;28;20458;-67
2022/06/13 11:41:30;;;;;;;4.63;2.30;;;25.20;55.70;;;;;;5036880;28;20430;-67
2022/06/13 11:44:19;;;;;;;2.87;2.57;;;25.00;55.00;;;;;;5034252;28;20915;-68
2022/06/13 11:47:05;;;;;;;3.93;2.60;;;24.90;55.70;;;;;;5034956;28;20435;-67
2022/06/13 11:49:55;;;;;;;5.17;2.90;;;24.90;55.80;;;;;;5032305;28;20448;-67
2022/06/13 11:55:28;;;;;;;5.50;3.43;;;25.20;55.20;;;;;;5033532;28;20448;-68
2022/06/13 11:57:56;;;;;;;3.63;2.70;;;25.20;56.00;;;;;;5032203;28;20922;-68
2022/06/13 12:00:27;;;;;;;3.03;2.50;;;25.50;55.90;;;;;;5045891;28;20431;-68
2022/06/13 12:03:05;;;;;;;3.00;2.50;;;26.20;54.20;;;;;;5031721;28;20564;-68
2022/06/13 12:05:35;;;;;;;8.13;3.30;;;27.20;53.10;;;;;;5036305;28;20438;-68
2022/06/13 12:08:15;;;;;;;6.40;2.63;;;27.40;52.60;;;;;;5033884;28;20427;-68
2022/06/13 12:11:01;;;;;;;4.13;2.43;;;29.20;51.20;;;;;;5031086;28;20438;-67
2022/06/13 12:13:31;;;;;;;3.93;2.90;;;32.00;47.80;;;;;;5020952;28;20452;-68
2022/06/13 12:16:24;;;;;;;3.03;2.70;;;33.60;43.30;;;;;;5032395;28;20437;-68
2022/06/13 12:19:21;;;;;;;2.67;2.30;;;34.80;42.00;;;;;;5014903;28;20427;-68
2022/06/13 12:22:14;;;;;;;4.57;2.50;;;36.10;39.90;;;;;;5035421;28;20812;-66
2022/06/13 12:25:01;;;;;;;3.00;2.70;;;35.70;37.70;;;;;;5031576;28;20589;-66
2022/06/13 12:28:03;;;;;;;3.97;2.60;;;35.60;36.70;;;;;;5034606;28;20442;-68
2022/06/13 12:30:56;;;;;;;5.67;2.80;;;36.20;36.10;;;;;;5035563;28;20419;-68
2022/06/13 12:33:49;;;;;;;4.30;2.70;;;35.00;35.70;;;;;;5030886;28;20422;-68
2022/06/13 12:36:56;;;;;;;3.10;2.80;;;33.50;37.10;;;;;;5033070;28;20432;-67
2022/06/13 12:39:36;;;;;;;4.40;2.53;;;31.70;38.10;;;;;;4980407;28;20423;-67
2022/06/13 12:42:27;;;;;;;5.37;3.07;;;30.40;39.80;;;;;;5033367;28;20449;-68
2022/06/13 12:45:12;;;;;;;3.40;2.80;;;30.50;41.70;;;;;;5036918;28;21171;-69
2022/06/13 12:47:44;;;;;;;2.80;2.60;;;32.60;40.90;;;;;;5030766;28;20576;-67
2022/06/13 12:50:29;;;;;;;3.50;2.70;;;34.70;39.00;;;;;;5035714;28;20825;-67
2022/06/13 12:53:12;;;;;;;2.90;2.60;;;35.50;37.20;;;;;;5034786;28;20467;-67
2022/06/13 12:56:01;;;;;;;9.20;2.77;;;33.50;37.10;;;;;;5029390;28;20409;-67
2022/06/13 12:58:46;;;;;;;3.30;2.90;;;32.30;38.30;;;;;;5029127;28;20426;-67
2022/06/13 13:01:25;;;;;;;4.23;2.70;;;31.50;39.20;;;;;;5035045;28;20476;-68
2022/06/13 13:04:18;;;;;;;4.20;3.10;;;30.80;39.90;;;;;;5040868;28;20435;-68
2022/06/13 13:07:10;;;;;;;4.90;3.10;;;30.70;41.00;;;;;;5034914;28;20419;-67
2022/06/13 13:10:01;;;;;;;4.90;3.13;;;32.10;40.50;;;;;;5039758;28;20442;-67
2022/06/13 13:12:58;;;;;;;5.13;3.40;;;32.60;39.30;;;;;;5036859;28;20470;-67
2022/06/13 13:15:40;;;;;;;3.57;2.90;;;32.40;37.90;;;;;;5036785;28;20472;-68
2022/06/13 13:18:26;;;;;;;3.90;3.30;;;32.00;38.30;;;;;;5038623;28;20920;-67
2022/06/13 13:21:09;;;;;;;3.00;2.70;;;31.50;39.40;;;;;;5030117;28;20929;-67
2022/06/13 13:23:46;;;;;;;6.00;3.37;;;33.10;38.40;;;;;;5027606;28;20982;-67
2022/06/13 13:26:47;;;;;;;3.20;2.63;;;33.60;37.80;;;;;;5036706;28;20503;-68
2022/06/13 13:29:28;;;;;;;4.03;2.80;;;34.00;36.70;;;;;;5034017;28;20418;-68
2022/06/13 13:32:07;;;;;;;6.97;2.70;;;34.70;36.00;;;;;;5016313;28;20502;-68
2022/06/13 13:35:24;;;;;;;4.90;2.70;;;35.10;36.00;;;;;;5033315;28;20975;-68
2022/06/13 13:37:52;;;;;;;3.13;2.53;;;35.00;35.90;;;;;;4941442;28;20444;-68
2022/06/13 13:40:45;;;;;;;4.50;3.00;;;35.50;35.40;;;;;;5035056;28;20386;-68
2022/06/13 13:43:52;;;;;;;3.30;3.00;;;36.70;34.50;;;;;;5034355;28;20505;-68
2022/06/13 13:46:53;;;;;;;3.10;2.80;;;40.70;33.00;;;;;;4998499;28;20434;-68
2022/06/13 13:49:31;;;;;;;3.30;3.00;;;41.50;30.90;;;;;;5030897;28;20432;-68
2022/06/13 13:52:13;;;;;;;3.30;2.93;;;41.50;29.40;;;;;;5036581;28;20470;-68
2022/06/13 13:54:46;;;;;;;4.30;2.87;;;39.10;29.10;;;;;;5036082;28;20509;-68